sensor_id;sensor_type;location;lat;lon;timestamp;P1;durP1;ratioP1;P2;durP2;ratioP2
16660;SDS011;8444;52.012;5.048;2022-11-20T00:01:27;12.73;;;7.97;;
16660;SDS011;8444;52.012;5.048;2022-11-20T00:03:53;16.07;;;9.23;;
16660;SDS011;8444;52.012;5.048;2022-11-20T00:06:19;16.80;;;9.73;;
16660;SDS011;8444;52.012;5.048;2022-11-20T00:08:45;16.20;;;8.87;;
16660;SDS011;8444;52.012;5.048;2022-11-20T00:11:14;11.87;;;8.27;;
16660;SDS011;8444;52.012;5.048;2022-11-20T00:13:40;15.63;;;9.13;;
16660;SDS011;8444;52.012;5.048;2022-11-20T00:16:06;18.27;;;9.47;;
16660;SDS011;8444;52.012;5.048;2022-11-20T00:18:32;12.80;;;8.30;;
16660;SDS011;8444;52.012;5.048;2022-11-20T00:21:09;15.53;;;8.90;;
16660;SDS011;8444;52.012;5.048;2022-11-20T00:23:35;15.97;;;8.37;;
16660;SDS011;8444;52.012;5.048;2022-11-20T00:26:01;16.83;;;9.40;;
16660;SDS011;8444;52.012;5.048;2022-11-20T00:28:26;17.10;;;8.90;;
16660;SDS011;8444;52.012;5.048;2022-11-20T00:30:51;14.53;;;8.27;;
16660;SDS011;8444;52.012;5.048;2022-11-20T00:33:16;16.60;;;8.97;;
16660;SDS011;8444;52.012;5.048;2022-11-20T00:35:42;17.77;;;9.50;;
16660;SDS011;8444;52.012;5.048;2022-11-20T00:38:07;17.93;;;9.17;;
16660;SDS011;8444;52.012;5.048;2022-11-20T00:40:32;14.03;;;8.37;;
16660;SDS011;8444;52.012;5.048;2022-11-20T00:42:57;15.10;;;9.10;;
16660;SDS011;8444;52.012;5.048;2022-11-20T00:45:22;15.97;;;8.60;;
16660;SDS011;8444;52.012;5.048;2022-11-20T00:47:48;14.83;;;8.73;;
16660;SDS011;8444;52.012;5.048;2022-11-20T00:50:13;13.17;;;8.40;;
16660;SDS011;8444;52.012;5.048;2022-11-20T00:52:38;15.37;;;8.90;;
16660;SDS011;8444;52.012;5.048;2022-11-20T00:55:03;17.60;;;9.23;;
16660;SDS011;8444;52.012;5.048;2022-11-20T00:57:29;12.77;;;8.30;;
16660;SDS011;8444;52.012;5.048;2022-11-20T00:59:54;17.60;;;8.87;;
16660;SDS011;8444;52.012;5.048;2022-11-20T01:02:19;14.83;;;8.90;;
16660;SDS011;8444;52.012;5.048;2022-11-20T01:04:44;17.93;;;9.13;;
16660;SDS011;8444;52.012;5.048;2022-11-20T01:07:10;14.87;;;8.93;;
16660;SDS011;8444;52.012;5.048;2022-11-20T01:09:35;14.90;;;8.50;;
16660;SDS011;8444;52.012;5.048;2022-11-20T01:12:00;14.27;;;8.63;;
16660;SDS011;8444;52.012;5.048;2022-11-20T01:14:26;17.03;;;9.23;;
16660;SDS011;8444;52.012;5.048;2022-11-20T01:16:51;17.60;;;9.97;;
16660;SDS011;8444;52.012;5.048;2022-11-20T01:19:17;17.43;;;9.10;;
16660;SDS011;8444;52.012;5.048;2022-11-20T01:21:44;17.10;;;9.87;;
16660;SDS011;8444;52.012;5.048;2022-11-20T01:24:11;13.10;;;8.77;;
16660;SDS011;8444;52.012;5.048;2022-11-20T01:26:37;17.07;;;7.80;;
16660;SDS011;8444;52.012;5.048;2022-11-20T01:29:03;18.53;;;9.40;;
16660;SDS011;8444;52.012;5.048;2022-11-20T01:31:29;13.53;;;8.23;;
16660;SDS011;8444;52.012;5.048;2022-11-20T01:33:56;16.43;;;9.50;;
16660;SDS011;8444;52.012;5.048;2022-11-20T01:36:21;13.63;;;9.77;;
16660;SDS011;8444;52.012;5.048;2022-11-20T01:38:47;16.47;;;8.73;;
16660;SDS011;8444;52.012;5.048;2022-11-20T01:41:13;16.80;;;9.27;;
16660;SDS011;8444;52.012;5.048;2022-11-20T01:43:59;15.40;;;8.33;;
16660;SDS011;8444;52.012;5.048;2022-11-20T01:46:24;17.07;;;9.43;;
16660;SDS011;8444;52.012;5.048;2022-11-20T01:48:51;16.73;;;9.23;;
16660;SDS011;8444;52.012;5.048;2022-11-20T01:51:21;16.37;;;9.27;;
16660;SDS011;8444;52.012;5.048;2022-11-20T01:53:47;15.87;;;9.50;;
16660;SDS011;8444;52.012;5.048;2022-11-20T01:56:13;15.40;;;10.20;;
16660;SDS011;8444;52.012;5.048;2022-11-20T01:58:39;17.27;;;10.13;;
16660;SDS011;8444;52.012;5.048;2022-11-20T02:01:06;15.20;;;10.10;;
16660;SDS011;8444;52.012;5.048;2022-11-20T02:03:31;14.67;;;8.67;;
16660;SDS011;8444;52.012;5.048;2022-11-20T02:08:37;14.93;;;9.10;;
16660;SDS011;8444;52.012;5.048;2022-11-20T02:11:02;17.67;;;9.37;;
16660;SDS011;8444;52.012;5.048;2022-11-20T02:13:27;16.37;;;10.17;;
16660;SDS011;8444;52.012;5.048;2022-11-20T02:16:09;17.13;;;9.13;;
16660;SDS011;8444;52.012;5.048;2022-11-20T02:18:35;18.10;;;9.57;;
16660;SDS011;8444;52.012;5.048;2022-11-20T02:21:06;14.10;;;8.83;;
16660;SDS011;8444;52.012;5.048;2022-11-20T02:25:57;16.90;;;9.57;;
16660;SDS011;8444;52.012;5.048;2022-11-20T02:28:23;14.47;;;9.23;;
16660;SDS011;8444;52.012;5.048;2022-11-20T02:30:48;16.73;;;9.03;;
16660;SDS011;8444;52.012;5.048;2022-11-20T02:33:14;16.13;;;9.03;;
16660;SDS011;8444;52.012;5.048;2022-11-20T02:35:40;17.63;;;8.90;;
16660;SDS011;8444;52.012;5.048;2022-11-20T02:38:05;15.47;;;9.00;;
16660;SDS011;8444;52.012;5.048;2022-11-20T02:40:30;14.47;;;8.77;;
16660;SDS011;8444;52.012;5.048;2022-11-20T02:42:56;14.30;;;8.67;;
16660;SDS011;8444;52.012;5.048;2022-11-20T02:45:21;15.50;;;8.83;;
16660;SDS011;8444;52.012;5.048;2022-11-20T02:47:47;16.27;;;9.00;;
16660;SDS011;8444;52.012;5.048;2022-11-20T02:50:13;15.63;;;8.90;;
16660;SDS011;8444;52.012;5.048;2022-11-20T02:52:38;18.70;;;9.40;;
16660;SDS011;8444;52.012;5.048;2022-11-20T02:55:03;16.33;;;8.97;;
16660;SDS011;8444;52.012;5.048;2022-11-20T02:57:28;14.43;;;8.20;;
16660;SDS011;8444;52.012;5.048;2022-11-20T02:59:54;18.60;;;10.30;;
16660;SDS011;8444;52.012;5.048;2022-11-20T03:02:19;17.83;;;9.03;;
16660;SDS011;8444;52.012;5.048;2022-11-20T03:04:44;17.90;;;9.57;;
16660;SDS011;8444;52.012;5.048;2022-11-20T03:07:09;16.07;;;9.10;;
16660;SDS011;8444;52.012;5.048;2022-11-20T03:09:34;18.20;;;9.43;;
16660;SDS011;8444;52.012;5.048;2022-11-20T03:12:00;16.07;;;8.90;;
16660;SDS011;8444;52.012;5.048;2022-11-20T03:14:25;17.53;;;9.17;;
16660;SDS011;8444;52.012;5.048;2022-11-20T03:16:50;16.40;;;10.00;;
16660;SDS011;8444;52.012;5.048;2022-11-20T03:19:15;17.13;;;9.40;;
16660;SDS011;8444;52.012;5.048;2022-11-20T03:21:40;12.90;;;8.43;;
16660;SDS011;8444;52.012;5.048;2022-11-20T03:24:06;16.13;;;8.60;;
16660;SDS011;8444;52.012;5.048;2022-11-20T03:26:31;16.00;;;8.33;;
16660;SDS011;8444;52.012;5.048;2022-11-20T03:29:00;14.97;;;9.03;;
16660;SDS011;8444;52.012;5.048;2022-11-20T03:31:26;15.10;;;8.67;;
16660;SDS011;8444;52.012;5.048;2022-11-20T03:33:52;13.83;;;8.30;;
16660;SDS011;8444;52.012;5.048;2022-11-20T03:36:17;16.40;;;8.80;;
16660;SDS011;8444;52.012;5.048;2022-11-20T03:38:43;18.03;;;9.00;;
16660;SDS011;8444;52.012;5.048;2022-11-20T03:41:09;14.47;;;8.33;;
16660;SDS011;8444;52.012;5.048;2022-11-20T03:43:35;12.60;;;7.87;;
16660;SDS011;8444;52.012;5.048;2022-11-20T03:46:00;14.67;;;7.80;;
16660;SDS011;8444;52.012;5.048;2022-11-20T03:48:25;14.10;;;8.10;;
16660;SDS011;8444;52.012;5.048;2022-11-20T03:51:05;12.87;;;7.60;;
16660;SDS011;8444;52.012;5.048;2022-11-20T03:53:31;14.50;;;8.43;;
16660;SDS011;8444;52.012;5.048;2022-11-20T03:55:56;14.80;;;8.37;;
16660;SDS011;8444;52.012;5.048;2022-11-20T03:58:21;15.03;;;8.37;;
16660;SDS011;8444;52.012;5.048;2022-11-20T04:00:46;16.03;;;8.50;;
16660;SDS011;8444;52.012;5.048;2022-11-20T04:03:12;17.03;;;8.37;;
16660;SDS011;8444;52.012;5.048;2022-11-20T04:05:37;14.67;;;8.27;;
16660;SDS011;8444;52.012;5.048;2022-11-20T04:08:02;14.83;;;8.10;;
16660;SDS011;8444;52.012;5.048;2022-11-20T04:10:27;15.93;;;8.60;;
16660;SDS011;8444;52.012;5.048;2022-11-20T04:12:52;18.07;;;9.37;;
16660;SDS011;8444;52.012;5.048;2022-11-20T04:15:18;16.37;;;9.27;;
16660;SDS011;8444;52.012;5.048;2022-11-20T04:17:43;15.73;;;8.77;;
16660;SDS011;8444;52.012;5.048;2022-11-20T04:20:08;16.83;;;9.23;;
16660;SDS011;8444;52.012;5.048;2022-11-20T04:22:33;14.13;;;8.03;;
16660;SDS011;8444;52.012;5.048;2022-11-20T04:24:58;18.00;;;9.13;;
16660;SDS011;8444;52.012;5.048;2022-11-20T04:27:24;17.20;;;8.70;;
16660;SDS011;8444;52.012;5.048;2022-11-20T04:29:49;17.00;;;9.80;;
16660;SDS011;8444;52.012;5.048;2022-11-20T04:32:14;17.20;;;8.60;;
16660;SDS011;8444;52.012;5.048;2022-11-20T04:34:39;14.87;;;8.97;;
16660;SDS011;8444;52.012;5.048;2022-11-20T04:37:04;16.93;;;9.73;;
16660;SDS011;8444;52.012;5.048;2022-11-20T04:39:30;17.63;;;9.07;;
16660;SDS011;8444;52.012;5.048;2022-11-20T04:41:55;16.13;;;9.40;;
16660;SDS011;8444;52.012;5.048;2022-11-20T04:44:39;16.57;;;9.17;;
16660;SDS011;8444;52.012;5.048;2022-11-20T04:47:04;20.00;;;9.50;;
16660;SDS011;8444;52.012;5.048;2022-11-20T04:49:29;17.37;;;9.73;;
16660;SDS011;8444;52.012;5.048;2022-11-20T04:51:56;14.90;;;8.73;;
16660;SDS011;8444;52.012;5.048;2022-11-20T04:54:21;18.07;;;8.50;;
16660;SDS011;8444;52.012;5.048;2022-11-20T04:56:49;15.33;;;9.63;;
16660;SDS011;8444;52.012;5.048;2022-11-20T04:59:15;14.07;;;8.27;;
16660;SDS011;8444;52.012;5.048;2022-11-20T05:01:40;16.77;;;9.33;;
16660;SDS011;8444;52.012;5.048;2022-11-20T05:04:06;17.17;;;8.37;;
16660;SDS011;8444;52.012;5.048;2022-11-20T05:06:31;14.53;;;9.13;;
16660;SDS011;8444;52.012;5.048;2022-11-20T05:08:56;12.77;;;8.00;;
16660;SDS011;8444;52.012;5.048;2022-11-20T05:11:22;17.07;;;8.97;;
16660;SDS011;8444;52.012;5.048;2022-11-20T05:13:47;14.30;;;8.17;;
16660;SDS011;8444;52.012;5.048;2022-11-20T05:16:14;17.60;;;8.47;;
16660;SDS011;8444;52.012;5.048;2022-11-20T05:18:40;15.97;;;9.33;;
16660;SDS011;8444;52.012;5.048;2022-11-20T05:21:05;19.97;;;9.17;;
16660;SDS011;8444;52.012;5.048;2022-11-20T05:23:31;13.93;;;8.73;;
16660;SDS011;8444;52.012;5.048;2022-11-20T05:25:56;15.63;;;8.57;;
16660;SDS011;8444;52.012;5.048;2022-11-20T05:28:22;17.83;;;9.97;;
16660;SDS011;8444;52.012;5.048;2022-11-20T05:30:48;15.17;;;7.77;;
16660;SDS011;8444;52.012;5.048;2022-11-20T05:33:13;17.40;;;8.80;;
16660;SDS011;8444;52.012;5.048;2022-11-20T05:35:39;13.97;;;8.37;;
16660;SDS011;8444;52.012;5.048;2022-11-20T05:38:04;15.97;;;9.13;;
16660;SDS011;8444;52.012;5.048;2022-11-20T05:40:29;16.60;;;9.57;;
16660;SDS011;8444;52.012;5.048;2022-11-20T05:42:54;15.23;;;9.00;;
16660;SDS011;8444;52.012;5.048;2022-11-20T05:45:19;17.70;;;9.70;;
16660;SDS011;8444;52.012;5.048;2022-11-20T05:47:45;15.17;;;9.03;;
16660;SDS011;8444;52.012;5.048;2022-11-20T05:50:10;18.87;;;9.77;;
16660;SDS011;8444;52.012;5.048;2022-11-20T05:52:35;17.17;;;9.73;;
16660;SDS011;8444;52.012;5.048;2022-11-20T05:55:00;15.37;;;9.03;;
16660;SDS011;8444;52.012;5.048;2022-11-20T05:57:25;16.63;;;9.43;;
16660;SDS011;8444;52.012;5.048;2022-11-20T05:59:51;16.00;;;8.53;;
16660;SDS011;8444;52.012;5.048;2022-11-20T06:02:16;15.90;;;9.63;;
16660;SDS011;8444;52.012;5.048;2022-11-20T06:04:41;15.40;;;9.57;;
16660;SDS011;8444;52.012;5.048;2022-11-20T06:07:06;16.00;;;10.17;;
16660;SDS011;8444;52.012;5.048;2022-11-20T06:09:31;16.10;;;9.47;;
16660;SDS011;8444;52.012;5.048;2022-11-20T06:11:57;16.87;;;9.40;;
16660;SDS011;8444;52.012;5.048;2022-11-20T06:14:22;19.10;;;9.60;;
16660;SDS011;8444;52.012;5.048;2022-11-20T06:16:47;14.73;;;9.57;;
16660;SDS011;8444;52.012;5.048;2022-11-20T06:19:12;17.43;;;9.63;;
16660;SDS011;8444;52.012;5.048;2022-11-20T06:21:38;20.07;;;10.50;;
16660;SDS011;8444;52.012;5.048;2022-11-20T06:24:03;18.07;;;9.60;;
16660;SDS011;8444;52.012;5.048;2022-11-20T06:26:29;13.10;;;9.03;;
16660;SDS011;8444;52.012;5.048;2022-11-20T06:28:55;16.30;;;8.40;;
16660;SDS011;8444;52.012;5.048;2022-11-20T06:31:23;20.77;;;10.33;;
16660;SDS011;8444;52.012;5.048;2022-11-20T06:33:48;19.87;;;10.70;;
16660;SDS011;8444;52.012;5.048;2022-11-20T06:36:15;18.50;;;9.43;;
16660;SDS011;8444;52.012;5.048;2022-11-20T06:38:40;15.70;;;9.43;;
16660;SDS011;8444;52.012;5.048;2022-11-20T06:41:11;17.53;;;10.10;;
16660;SDS011;8444;52.012;5.048;2022-11-20T06:43:36;22.67;;;11.23;;
16660;SDS011;8444;52.012;5.048;2022-11-20T06:46:01;17.93;;;10.83;;
16660;SDS011;8444;52.012;5.048;2022-11-20T06:48:27;15.50;;;10.27;;
16660;SDS011;8444;52.012;5.048;2022-11-20T06:50:53;19.27;;;10.70;;
16660;SDS011;8444;52.012;5.048;2022-11-20T06:53:18;17.83;;;10.30;;
16660;SDS011;8444;52.012;5.048;2022-11-20T06:55:44;20.77;;;12.90;;
16660;SDS011;8444;52.012;5.048;2022-11-20T06:58:09;22.03;;;11.97;;
16660;SDS011;8444;52.012;5.048;2022-11-20T07:00:35;19.33;;;10.90;;
16660;SDS011;8444;52.012;5.048;2022-11-20T07:03:06;17.07;;;11.30;;
16660;SDS011;8444;52.012;5.048;2022-11-20T07:05:32;20.80;;;10.37;;
16660;SDS011;8444;52.012;5.048;2022-11-20T07:07:57;19.93;;;10.87;;
16660;SDS011;8444;52.012;5.048;2022-11-20T07:10:22;19.03;;;10.40;;
16660;SDS011;8444;52.012;5.048;2022-11-20T07:12:51;18.80;;;10.30;;
16660;SDS011;8444;52.012;5.048;2022-11-20T07:15:20;18.30;;;10.47;;
16660;SDS011;8444;52.012;5.048;2022-11-20T07:17:46;19.53;;;10.97;;
16660;SDS011;8444;52.012;5.048;2022-11-20T07:20:11;16.57;;;10.13;;
16660;SDS011;8444;52.012;5.048;2022-11-20T07:22:37;24.20;;;13.03;;
16660;SDS011;8444;52.012;5.048;2022-11-20T07:25:02;22.13;;;11.30;;
16660;SDS011;8444;52.012;5.048;2022-11-20T07:27:28;19.20;;;12.43;;
16660;SDS011;8444;52.012;5.048;2022-11-20T07:29:53;18.27;;;10.93;;
16660;SDS011;8444;52.012;5.048;2022-11-20T07:32:19;25.17;;;11.67;;
16660;SDS011;8444;52.012;5.048;2022-11-20T07:34:44;21.13;;;11.73;;
16660;SDS011;8444;52.012;5.048;2022-11-20T07:37:09;21.13;;;11.50;;
16660;SDS011;8444;52.012;5.048;2022-11-20T07:39:34;23.43;;;12.77;;
16660;SDS011;8444;52.012;5.048;2022-11-20T07:41:59;20.33;;;10.70;;
16660;SDS011;8444;52.012;5.048;2022-11-20T07:44:25;18.43;;;11.97;;
16660;SDS011;8444;52.012;5.048;2022-11-20T07:46:50;24.63;;;12.83;;
16660;SDS011;8444;52.012;5.048;2022-11-20T07:49:15;22.37;;;13.33;;
16660;SDS011;8444;52.012;5.048;2022-11-20T07:51:40;20.03;;;12.70;;
16660;SDS011;8444;52.012;5.048;2022-11-20T07:54:05;20.13;;;11.97;;
16660;SDS011;8444;52.012;5.048;2022-11-20T07:56:31;25.83;;;13.93;;
16660;SDS011;8444;52.012;5.048;2022-11-20T07:58:56;27.60;;;14.23;;
16660;SDS011;8444;52.012;5.048;2022-11-20T08:01:21;24.87;;;13.37;;
16660;SDS011;8444;52.012;5.048;2022-11-20T08:03:46;22.87;;;13.03;;
16660;SDS011;8444;52.012;5.048;2022-11-20T08:06:11;23.00;;;13.37;;
16660;SDS011;8444;52.012;5.048;2022-11-20T08:08:37;26.77;;;13.90;;
16660;SDS011;8444;52.012;5.048;2022-11-20T08:11:04;23.03;;;14.27;;
16660;SDS011;8444;52.012;5.048;2022-11-20T08:13:48;23.10;;;12.73;;
16660;SDS011;8444;52.012;5.048;2022-11-20T08:16:31;21.87;;;13.40;;
16660;SDS011;8444;52.012;5.048;2022-11-20T08:18:57;24.03;;;14.23;;
16660;SDS011;8444;52.012;5.048;2022-11-20T08:21:22;25.07;;;14.17;;
16660;SDS011;8444;52.012;5.048;2022-11-20T08:23:47;22.07;;;14.00;;
16660;SDS011;8444;52.012;5.048;2022-11-20T08:26:12;23.63;;;13.40;;
16660;SDS011;8444;52.012;5.048;2022-11-20T08:28:37;21.73;;;13.50;;
16660;SDS011;8444;52.012;5.048;2022-11-20T08:31:02;24.10;;;14.77;;
16660;SDS011;8444;52.012;5.048;2022-11-20T08:33:28;20.17;;;12.83;;
16660;SDS011;8444;52.012;5.048;2022-11-20T08:35:53;25.83;;;14.97;;
16660;SDS011;8444;52.012;5.048;2022-11-20T08:38:22;24.47;;;13.50;;
16660;SDS011;8444;52.012;5.048;2022-11-20T08:40:48;22.27;;;14.60;;
16660;SDS011;8444;52.012;5.048;2022-11-20T08:43:33;26.10;;;13.53;;
16660;SDS011;8444;52.012;5.048;2022-11-20T08:45:58;19.70;;;12.93;;
16660;SDS011;8444;52.012;5.048;2022-11-20T08:48:23;23.67;;;13.60;;
16660;SDS011;8444;52.012;5.048;2022-11-20T08:50:48;22.50;;;13.10;;
16660;SDS011;8444;52.012;5.048;2022-11-20T08:53:13;22.30;;;13.53;;
16660;SDS011;8444;52.012;5.048;2022-11-20T08:55:39;21.40;;;13.93;;
16660;SDS011;8444;52.012;5.048;2022-11-20T08:58:04;22.63;;;13.50;;
16660;SDS011;8444;52.012;5.048;2022-11-20T09:00:29;22.80;;;13.50;;
16660;SDS011;8444;52.012;5.048;2022-11-20T09:02:55;22.20;;;13.43;;
16660;SDS011;8444;52.012;5.048;2022-11-20T09:05:20;20.53;;;13.77;;
16660;SDS011;8444;52.012;5.048;2022-11-20T09:07:45;21.73;;;12.83;;
16660;SDS011;8444;52.012;5.048;2022-11-20T09:10:10;21.70;;;12.63;;
16660;SDS011;8444;52.012;5.048;2022-11-20T09:12:35;21.90;;;12.27;;
16660;SDS011;8444;52.012;5.048;2022-11-20T09:15:01;23.87;;;13.50;;
16660;SDS011;8444;52.012;5.048;2022-11-20T09:17:26;20.47;;;13.67;;
16660;SDS011;8444;52.012;5.048;2022-11-20T09:19:52;18.73;;;12.77;;
16660;SDS011;8444;52.012;5.048;2022-11-20T09:22:17;20.87;;;13.67;;
16660;SDS011;8444;52.012;5.048;2022-11-20T09:24:42;22.03;;;13.03;;
16660;SDS011;8444;52.012;5.048;2022-11-20T09:27:08;20.57;;;11.87;;
16660;SDS011;8444;52.012;5.048;2022-11-20T09:29:33;19.43;;;12.03;;
16660;SDS011;8444;52.012;5.048;2022-11-20T09:31:58;21.03;;;13.13;;
16660;SDS011;8444;52.012;5.048;2022-11-20T09:34:23;20.87;;;12.07;;
16660;SDS011;8444;52.012;5.048;2022-11-20T09:36:49;17.57;;;11.50;;
16660;SDS011;8444;52.012;5.048;2022-11-20T09:39:14;19.97;;;11.43;;
16660;SDS011;8444;52.012;5.048;2022-11-20T09:52:14;19.63;;;12.70;;
16660;SDS011;8444;52.012;5.048;2022-11-20T09:54:43;19.73;;;12.87;;
16660;SDS011;8444;52.012;5.048;2022-11-20T09:57:12;22.00;;;12.33;;
16660;SDS011;8444;52.012;5.048;2022-11-20T09:59:42;18.93;;;11.50;;
16660;SDS011;8444;52.012;5.048;2022-11-20T10:02:29;18.07;;;12.87;;
16660;SDS011;8444;52.012;5.048;2022-11-20T10:07:27;18.57;;;11.60;;
16660;SDS011;8444;52.012;5.048;2022-11-20T10:09:55;17.27;;;11.70;;
16660;SDS011;8444;52.012;5.048;2022-11-20T10:17:17;18.00;;;12.53;;
16660;SDS011;8444;52.012;5.048;2022-11-20T10:22:29;22.83;;;13.73;;
16660;SDS011;8444;52.012;5.048;2022-11-20T10:30:14;20.63;;;13.70;;
16660;SDS011;8444;52.012;5.048;2022-11-20T10:32:45;21.83;;;14.33;;
16660;SDS011;8444;52.012;5.048;2022-11-20T10:37:36;20.63;;;13.63;;
16660;SDS011;8444;52.012;5.048;2022-11-20T10:40:15;21.20;;;14.03;;
16660;SDS011;8444;52.012;5.048;2022-11-20T10:45:15;22.30;;;13.60;;
16660;SDS011;8444;52.012;5.048;2022-11-20T10:47:41;21.27;;;13.33;;
16660;SDS011;8444;52.012;5.048;2022-11-20T10:50:09;24.37;;;13.97;;
16660;SDS011;8444;52.012;5.048;2022-11-20T10:58:20;24.97;;;13.33;;
16660;SDS011;8444;52.012;5.048;2022-11-20T11:00:47;23.10;;;14.00;;
16660;SDS011;8444;52.012;5.048;2022-11-20T11:08:32;22.30;;;14.80;;
16660;SDS011;8444;52.012;5.048;2022-11-20T11:11:00;26.03;;;15.00;;
16660;SDS011;8444;52.012;5.048;2022-11-20T11:13:27;28.70;;;17.33;;
16660;SDS011;8444;52.012;5.048;2022-11-20T11:15:53;24.73;;;14.57;;
16660;SDS011;8444;52.012;5.048;2022-11-20T11:18:25;27.13;;;15.90;;
16660;SDS011;8444;52.012;5.048;2022-11-20T11:20:50;27.87;;;16.53;;
16660;SDS011;8444;52.012;5.048;2022-11-20T11:26:00;29.70;;;15.07;;
16660;SDS011;8444;52.012;5.048;2022-11-20T11:28:26;25.87;;;14.77;;
16660;SDS011;8444;52.012;5.048;2022-11-20T11:30:52;28.13;;;15.00;;
16660;SDS011;8444;52.012;5.048;2022-11-20T11:33:19;27.17;;;16.80;;
16660;SDS011;8444;52.012;5.048;2022-11-20T11:35:45;28.17;;;16.53;;
16660;SDS011;8444;52.012;5.048;2022-11-20T11:38:12;29.27;;;16.00;;
16660;SDS011;8444;52.012;5.048;2022-11-20T11:40:39;31.53;;;17.10;;
16660;SDS011;8444;52.012;5.048;2022-11-20T11:43:05;33.73;;;18.23;;
16660;SDS011;8444;52.012;5.048;2022-11-20T11:45:54;26.80;;;15.50;;
16660;SDS011;8444;52.012;5.048;2022-11-20T11:48:19;29.17;;;16.23;;
16660;SDS011;8444;52.012;5.048;2022-11-20T11:50:48;29.30;;;17.20;;
16660;SDS011;8444;52.012;5.048;2022-11-20T11:53:15;34.47;;;17.17;;
16660;SDS011;8444;52.012;5.048;2022-11-20T11:58:17;32.43;;;17.17;;
16660;SDS011;8444;52.012;5.048;2022-11-20T12:00:58;25.07;;;15.20;;
16660;SDS011;8444;52.012;5.048;2022-11-20T12:03:29;27.47;;;15.07;;
16660;SDS011;8444;52.012;5.048;2022-11-20T12:06:20;30.10;;;17.10;;
16660;SDS011;8444;52.012;5.048;2022-11-20T12:16:19;29.17;;;17.60;;
16660;SDS011;8444;52.012;5.048;2022-11-20T12:18:45;25.63;;;14.97;;
16660;SDS011;8444;52.012;5.048;2022-11-20T12:21:20;30.03;;;15.77;;
16660;SDS011;8444;52.012;5.048;2022-11-20T12:31:42;27.57;;;16.37;;
16660;SDS011;8444;52.012;5.048;2022-11-20T12:34:19;31.60;;;16.63;;
16660;SDS011;8444;52.012;5.048;2022-11-20T12:37:10;30.93;;;17.80;;
16660;SDS011;8444;52.012;5.048;2022-11-20T12:39:33;29.53;;;16.50;;
16660;SDS011;8444;52.012;5.048;2022-11-20T12:45:05;33.63;;;16.90;;
16660;SDS011;8444;52.012;5.048;2022-11-20T12:53:22;32.60;;;17.07;;
16660;SDS011;8444;52.012;5.048;2022-11-20T13:00:41;33.63;;;17.87;;
16660;SDS011;8444;52.012;5.048;2022-11-20T13:08:02;37.17;;;19.20;;
16660;SDS011;8444;52.012;5.048;2022-11-20T13:15:51;33.60;;;17.43;;
16660;SDS011;8444;52.012;5.048;2022-11-20T13:18:18;37.57;;;16.87;;
16660;SDS011;8444;52.012;5.048;2022-11-20T13:20:44;35.60;;;18.23;;
16660;SDS011;8444;52.012;5.048;2022-11-20T13:23:10;36.10;;;18.83;;
16660;SDS011;8444;52.012;5.048;2022-11-20T13:25:36;34.37;;;17.03;;
16660;SDS011;8444;52.012;5.048;2022-11-20T13:28:47;40.07;;;20.13;;
16660;SDS011;8444;52.012;5.048;2022-11-20T13:30:51;41.10;;;20.40;;
16660;SDS011;8444;52.012;5.048;2022-11-20T13:33:30;35.57;;;19.23;;
16660;SDS011;8444;52.012;5.048;2022-11-20T13:36:00;37.00;;;19.00;;
16660;SDS011;8444;52.012;5.048;2022-11-20T13:38:25;34.10;;;17.97;;
16660;SDS011;8444;52.012;5.048;2022-11-20T13:45:53;33.60;;;19.53;;
16660;SDS011;8444;52.012;5.048;2022-11-20T13:48:20;35.57;;;19.70;;
16660;SDS011;8444;52.012;5.048;2022-11-20T13:50:50;33.87;;;19.30;;
16660;SDS011;8444;52.012;5.048;2022-11-20T13:53:26;42.23;;;20.07;;
16660;SDS011;8444;52.012;5.048;2022-11-20T13:58:56;40.40;;;19.97;;
16660;SDS011;8444;52.012;5.048;2022-11-20T14:01:15;32.43;;;18.73;;
16660;SDS011;8444;52.012;5.048;2022-11-20T14:03:41;35.07;;;20.73;;
16660;SDS011;8444;52.012;5.048;2022-11-20T14:06:11;37.03;;;19.23;;
16660;SDS011;8444;52.012;5.048;2022-11-20T14:08:46;38.20;;;21.20;;
16660;SDS011;8444;52.012;5.048;2022-11-20T14:11:22;38.03;;;21.43;;
16660;SDS011;8444;52.012;5.048;2022-11-20T14:16:19;46.73;;;24.77;;
16660;SDS011;8444;52.012;5.048;2022-11-20T14:18:44;39.20;;;23.30;;
16660;SDS011;8444;52.012;5.048;2022-11-20T14:21:09;46.57;;;24.33;;
16660;SDS011;8444;52.012;5.048;2022-11-20T14:23:35;52.03;;;26.10;;
16660;SDS011;8444;52.012;5.048;2022-11-20T14:26:00;47.90;;;23.87;;
16660;SDS011;8444;52.012;5.048;2022-11-20T14:28:26;48.27;;;23.83;;
16660;SDS011;8444;52.012;5.048;2022-11-20T14:30:52;43.17;;;22.90;;
16660;SDS011;8444;52.012;5.048;2022-11-20T14:33:18;41.97;;;21.97;;
16660;SDS011;8444;52.012;5.048;2022-11-20T14:35:48;36.17;;;21.70;;
16660;SDS011;8444;52.012;5.048;2022-11-20T14:38:15;38.30;;;21.70;;
16660;SDS011;8444;52.012;5.048;2022-11-20T14:40:41;40.17;;;20.40;;
16660;SDS011;8444;52.012;5.048;2022-11-20T14:43:21;40.87;;;21.13;;
16660;SDS011;8444;52.012;5.048;2022-11-20T14:45:48;39.27;;;20.67;;
16660;SDS011;8444;52.012;5.048;2022-11-20T14:48:14;39.47;;;21.20;;
16660;SDS011;8444;52.012;5.048;2022-11-20T14:50:39;43.77;;;21.70;;
16660;SDS011;8444;52.012;5.048;2022-11-20T14:53:05;46.80;;;21.87;;
16660;SDS011;8444;52.012;5.048;2022-11-20T14:55:32;42.83;;;22.67;;
16660;SDS011;8444;52.012;5.048;2022-11-20T14:57:59;44.67;;;22.03;;
16660;SDS011;8444;52.012;5.048;2022-11-20T15:00:24;44.50;;;23.67;;
16660;SDS011;8444;52.012;5.048;2022-11-20T15:02:51;46.53;;;22.33;;
16660;SDS011;8444;52.012;5.048;2022-11-20T15:05:17;44.60;;;24.60;;
16660;SDS011;8444;52.012;5.048;2022-11-20T15:07:47;46.77;;;23.90;;
16660;SDS011;8444;52.012;5.048;2022-11-20T15:10:18;46.53;;;23.83;;
16660;SDS011;8444;52.012;5.048;2022-11-20T15:12:46;50.27;;;24.83;;
16660;SDS011;8444;52.012;5.048;2022-11-20T15:15:12;42.43;;;23.77;;
16660;SDS011;8444;52.012;5.048;2022-11-20T15:17:40;43.87;;;23.87;;
16660;SDS011;8444;52.012;5.048;2022-11-20T15:20:06;44.90;;;24.70;;
16660;SDS011;8444;52.012;5.048;2022-11-20T15:22:34;43.30;;;23.73;;
16660;SDS011;8444;52.012;5.048;2022-11-20T15:25:00;43.10;;;22.13;;
16660;SDS011;8444;52.012;5.048;2022-11-20T15:27:25;43.83;;;23.40;;
16660;SDS011;8444;52.012;5.048;2022-11-20T15:29:50;46.03;;;23.33;;
16660;SDS011;8444;52.012;5.048;2022-11-20T15:32:15;39.73;;;21.60;;
16660;SDS011;8444;52.012;5.048;2022-11-20T15:34:40;44.20;;;22.97;;
16660;SDS011;8444;52.012;5.048;2022-11-20T15:37:06;44.90;;;22.77;;
16660;SDS011;8444;52.012;5.048;2022-11-20T15:39:31;45.33;;;23.03;;
16660;SDS011;8444;52.012;5.048;2022-11-20T15:41:56;41.37;;;21.47;;
16660;SDS011;8444;52.012;5.048;2022-11-20T15:44:21;45.40;;;23.00;;
16660;SDS011;8444;52.012;5.048;2022-11-20T15:46:46;39.77;;;20.60;;
16660;SDS011;8444;52.012;5.048;2022-11-20T15:49:12;41.03;;;20.53;;
16660;SDS011;8444;52.012;5.048;2022-11-20T15:51:39;38.17;;;19.40;;
16660;SDS011;8444;52.012;5.048;2022-11-20T15:54:09;40.10;;;21.37;;
16660;SDS011;8444;52.012;5.048;2022-11-20T15:56:35;38.63;;;21.27;;
16660;SDS011;8444;52.012;5.048;2022-11-20T15:59:00;41.57;;;20.80;;
16660;SDS011;8444;52.012;5.048;2022-11-20T16:01:25;38.43;;;20.63;;
16660;SDS011;8444;52.012;5.048;2022-11-20T16:03:51;37.83;;;20.53;;
16660;SDS011;8444;52.012;5.048;2022-11-20T16:06:16;36.90;;;20.60;;
16660;SDS011;8444;52.012;5.048;2022-11-20T16:08:41;35.57;;;19.27;;
16660;SDS011;8444;52.012;5.048;2022-11-20T16:11:07;40.00;;;18.80;;
16660;SDS011;8444;52.012;5.048;2022-11-20T16:13:34;44.33;;;20.90;;
16660;SDS011;8444;52.012;5.048;2022-11-20T16:18:50;36.03;;;19.90;;
16660;SDS011;8444;52.012;5.048;2022-11-20T16:21:15;38.13;;;19.87;;
16660;SDS011;8444;52.012;5.048;2022-11-20T16:23:41;35.07;;;19.87;;